• Join FlightAware (Why Join?)
  • Login
  • US Flag 
12:29AM EDT


 

Airport Tracker/Info


-or-


 

Live Flight TrackerFlight Track Log ✈ IBE3329 ✈ 15-Apr-2013 ✈ GOOY / DKR - LEMD / MAD

Flight Track Log - Related Links

Times and Time Zones

All times are in EDT time to prevent confusion due to time zone crossing. See the IBE3329 flight status page for this flight to view local times or setup timezone preferences in your user account.

Time Position Orientation Groundspeed Altitude Reporting Facility
EDT Latitude Longitude Course Direction KTS MPH feet Rate Location/Type
08:00PM 24.1619 -13.1956 23° Northeast  Level Estimated
08:01PM 24.2720 -13.1417 24° Northeast  Level Estimated
08:02PM 24.3822 -13.0878 24° Northeast  Level Estimated
08:03PM 24.4923 -13.0338 24° Northeast  Level Estimated
08:04PM 24.6025 -12.9796 24° Northeast  Level Estimated
08:05PM 24.7126 -12.9254 24° Northeast  Level Estimated
08:06PM 24.8226 -12.8711 24° Northeast  Level Estimated
08:07PM 24.9327 -12.8167 24° Northeast  Level Estimated
08:08PM 25.0427 -12.7622 24° Northeast  Level Estimated
08:09PM 25.1528 -12.7076 24° Northeast  Level Estimated
08:10PM 25.2628 -12.6529 24° Northeast  Level Estimated
08:11PM 25.3727 -12.5981 24° Northeast  Level Estimated
08:12PM 25.4827 -12.5432 24° Northeast  Level Estimated
08:13PM 25.5926 -12.4882 24° Northeast  Level Estimated
08:14PM 25.7026 -12.4331 24° Northeast  Level Estimated
08:15PM 25.8125 -12.3779 24° Northeast  Level Estimated
08:16PM 25.9223 -12.3226 24° Northeast  Level Estimated
08:17PM 26.0322 -12.2672 24° Northeast  Level Estimated
08:18PM 26.1420 -12.2117 24° Northeast  Level Estimated
08:19PM 26.2519 -12.1560 24° Northeast  Level Estimated
08:20PM 26.3617 -12.1003 24° Northeast  Level Estimated
08:21PM 26.4714 -12.0445 24° Northeast  Level Estimated
08:22PM 26.5812 -11.9886 25° Northeast  Level Estimated
08:23PM 26.6909 -11.9325 25° Northeast  Level Estimated
08:24PM 26.8006 -11.8764 25° Northeast  Level Estimated
08:25PM 26.9103 -11.8201 25° Northeast  Level Estimated
08:26PM 27.0200 -11.7637 25° Northeast  Level Estimated
08:27PM 27.1296 -11.7073 25° Northeast  Level Estimated
08:28PM 27.2392 -11.6507 25° Northeast  Level Estimated
08:29PM 27.3488 -11.5940 25° Northeast  Level Estimated
08:30PM 27.4584 -11.5372 25° Northeast  Level Estimated
08:31PM 27.5679 -11.4802 25° Northeast  Level Estimated
08:32PM 27.6775 -11.4232 25° Northeast  Level Estimated
08:33PM 27.7869 -11.3660 25° Northeast  Level Estimated
08:34PM 27.8964 -11.3088 25° Northeast  Level Estimated
08:35PM 28.0059 -11.2514 25° Northeast  Level Estimated
08:36PM 28.1153 -11.1939 25° Northeast  Level Estimated
08:37PM 28.2247 -11.1362 25° Northeast  Level Estimated
08:38PM 28.3341 -11.0785 25° Northeast  Level Estimated
08:39PM 28.4435 -11.0206 25° Northeast  Level Estimated
08:40PM 28.5528 -10.9627 25° Northeast  Level Estimated
08:41PM 28.6621 -10.9046 25° Northeast  Level Estimated
08:42PM 28.7714 -10.8463 25° Northeast  Level Estimated
08:43PM 28.8806 -10.7880 25° Northeast  Level Estimated
08:44PM 28.9899 -10.7296 25° Northeast  Level Estimated
08:45PM 29.0991 -10.6710 25° Northeast  Level Estimated
08:46PM 29.2083 -10.6123 25° Northeast  Level Estimated
08:47PM 29.3174 -10.5534 25° Northeast  Level Estimated
08:48PM 29.4265 -10.4944 25° Northeast  Level Estimated
08:49PM 29.5357 -10.4354 25° Northeast  Level Estimated
08:50PM 29.6447 -10.3761 25° Northeast  Level Estimated
08:51PM 29.7538 -10.3168 25° Northeast  Level Estimated
08:52PM 29.8628 -10.2573 25° Northeast  Level Estimated
08:53PM 29.9718 -10.1977 25° Northeast  Level Estimated
08:54PM 30.0808 -10.1380 25° Northeast  Level Estimated
08:55PM 30.1897 -10.0781 25° Northeast  Level Estimated
08:56PM 30.2987 -10.0181 25° Northeast  Level Estimated
08:57PM 30.4076 -9.9580 25° Northeast  Level Estimated
08:58PM 30.5164 -9.8977 25° Northeast  Level Estimated
08:59PM 30.6252 -9.8373 26° Northeast  Level Estimated
09:00PM 30.7341 -9.7767 26° Northeast  Level Estimated
09:01PM 30.8428 -9.7161 26° Northeast  Level Estimated
09:02PM 30.9516 -9.6553 26° Northeast  Level Estimated
09:03PM 31.0603 -9.5943 26° Northeast  Level Estimated
09:04PM 31.1690 -9.5332 26° Northeast  Level Estimated
09:05PM 31.2777 -9.4720 26° Northeast  Level Estimated
09:06PM 31.3863 -9.4106 26° Northeast  Level Estimated
09:07PM 31.4949 -9.3491 26° Northeast  Level Estimated
09:08PM 31.6035 -9.2874 26° Northeast  Level Estimated
09:09PM 31.7120 -9.2256 26° Northeast  Level Estimated
09:10PM 31.8206 -9.1637 26° Northeast  Level Estimated
09:11PM 31.9291 -9.1016 26° Northeast  Level Estimated
09:12PM 32.0375 -9.0394 26° Northeast  Level Estimated
09:13PM 32.1460 -8.9770 26° Northeast  Level Estimated
09:14PM 32.2543 -8.9144 26° Northeast  Level Estimated
09:15PM 32.3627 -8.8517 26° Northeast  Level Estimated
09:16PM 32.4711 -8.7889 26° Northeast  Level Estimated
09:17PM 32.5793 -8.7259 26° Northeast  Level Estimated
09:18PM 32.6876 -8.6628 26° Northeast  Level Estimated
09:19PM 32.7959 -8.5995 26° Northeast  Level Estimated
09:20PM 32.9041 -8.5360 26° Northeast  Level Estimated
09:21PM 33.0122 -8.4724 26° Northeast  Level Estimated
09:22PM 33.1204 -8.4087 26° Northeast  Level Estimated
09:23PM 33.2285 -8.3448 26° Northeast  Level Estimated
09:24PM 33.3366 -8.2807 26° Northeast  Level Estimated
09:25PM 33.4446 -8.2164 26° Northeast  Level Estimated
09:26PM 33.5526 -8.1521 26° Northeast  Level Estimated
09:27PM 33.6606 -8.0875 26° Northeast  Level Estimated
09:28PM 33.7686 -8.0228 26° Northeast  Level Estimated
09:29PM 33.8765 -7.9579 27° Northeast  Level Estimated
09:30PM 33.9843 -7.8928 27° Northeast  Level Estimated
09:31PM 34.0922 -7.8276 27° Northeast  Level Estimated
09:32PM 34.2000 -7.7623 27° Northeast  Level Estimated
09:33PM 34.3078 -7.6967 27° Northeast  Level Estimated
09:34PM 34.4155 -7.6310 27° Northeast  Level Estimated
09:35PM 34.5232 -7.5651 27° Northeast  Level Estimated
09:36PM 34.6309 -7.4991 27° Northeast  Level Estimated
09:37PM 34.7385 -7.4329 27° Northeast  Level Estimated
09:37PM 34.4820 -7.3830 27° Northeast 426 490 36,000  Level FlightAware
09:38PM 34.8461 -7.3665 27° Northeast  Level Estimated
09:38PM 34.5770 -7.3080 33° Northeast 426 490 36,000  Level FlightAware
09:38PM 34.6450 -7.2550 33° Northeast 427 491 36,000  Level FlightAware
09:39PM 34.7200 -7.1960 33° Northeast 427 491 36,000  Level FlightAware
09:40PM 34.7840 -7.1460 33° Northeast 424 488 36,000  Level FlightAware
09:40PM 34.8550 -7.0900 33° Northeast 423 487 36,000  Level FlightAware
09:41PM 34.9300 -7.0320 32° Northeast 422 486 36,000  Level FlightAware
09:42PM 34.9970 -6.9790 33° Northeast 421 484 36,000  Level FlightAware
09:43PM 35.0730 -6.9180 33° Northeast 421 484 36,000  Level FlightAware
09:43PM 35.1380 -6.8670 33° Northeast 422 486 36,000  Level FlightAware
09:44PM 35.2040 -6.8140 33° Northeast 423 487 36,000  Level FlightAware
09:45PM 35.2790 -6.7540 33° Northeast 422 486 36,000  Level FlightAware
09:45PM 35.3470 -6.7010 32° Northeast 423 487 36,000  Level FlightAware
09:46PM 35.4220 -6.6410 33° Northeast 423 487 36,000  Level FlightAware
09:47PM 35.4880 -6.5880 33° Northeast 423 487 36,000 60 Level FlightAware
09:47PM 35.5630 -6.5280 33° Northeast 426 490 36,100 60 Climbing FlightAware
09:48PM 35.6290 -6.4750 33° Northeast 422 486 36,100 -120 Level FlightAware
09:49PM 35.7020 -6.4160 33° Northeast 409 471 36,000 -120 Descending FlightAware
09:50PM 35.7670 -6.3640 33° Northeast 405 466 36,000  Level FlightAware
09:50PM 35.8300 -6.3130 33° Northeast 404 465 36,000  Level FlightAware
09:51PM 35.9020 -6.2550 33° Northeast 408 470 36,000  Level FlightAware
09:52PM 35.9730 -6.2230 20° North 415 478 36,000  Level FlightAware
09:52PM 36.0590 -6.1940 15° North 417 480 36,000  Level FlightAware
09:53PM 36.1320 -6.1690 15° North 420 483 36,000  Level FlightAware
09:54PM 36.2080 -6.1430 15° North 414 476 36,000 60 Level FlightAware
09:54PM 36.2920 -6.1140 16° North 416 479 36,100 60 Climbing FlightAware
09:55PM 36.3680 -6.0880 15° North 416 479 36,100  Level FlightAware
09:56PM 36.4540 -6.0590 15° North 416 479 36,100 -120 Level FlightAware
09:57PM 36.5310 -6.0320 16° North 415 478 36,000 -120 Descending FlightAware
09:57PM 36.6050 -6.0070 15° North 415 478 36,000  Level FlightAware
09:58PM 36.6900 -5.9770 16° North 415 478 36,000  Level FlightAware
09:59PM 36.7650 -5.9510 16° North 414 476 36,000  Level FlightAware
09:59PM 36.8500 -5.9220 15° North 415 478 36,000  Level FlightAware
10:00PM 36.9260 -5.8950 16° North 415 478 36,000  Level FlightAware
10:01PM 37.0010 -5.8690 15° North 415 478 36,000  Level FlightAware
10:01PM 37.0860 -5.8390 16° North 415 478 36,000  Level FlightAware
10:02PM 37.1620 -5.8120 16° North 415 478 36,000  Level FlightAware
10:03PM 37.2470 -5.7830 15° North 416 479 36,000  Level FlightAware
10:04PM 37.3230 -5.7560 16° North 416 479 36,000  Level FlightAware
10:04PM 37.3980 -5.7290 16° North 416 479 36,000  Level FlightAware
10:05PM 37.4840 -5.6990 15° North 415 478 36,000  Level FlightAware
10:06PM 37.5590 -5.6730 15° North 415 478 36,000  Level FlightAware
10:06PM 37.6430 -5.6420 16° North 422 486 36,000  Level FlightAware
10:07PM 37.7190 -5.6160 15° North 420 483 36,000  Level FlightAware
10:08PM 37.7930 -5.5890 16° North 419 482 36,000  Level FlightAware
10:08PM 37.8770 -5.5590 16° North 418 481 36,000  Level FlightAware
10:09PM 37.9520 -5.5320 16° North 417 480 36,000  Level FlightAware
10:10PM 38.0360 -5.5020 16° North 418 481 36,000  Level FlightAware
10:11PM 38.1130 -5.4740 16° North 419 482 36,000  Level FlightAware
10:11PM 38.1850 -5.4480 16° North 420 483 36,000  Level FlightAware
10:12PM 38.2710 -5.4170 16° North 420 483 36,000  Level FlightAware
10:13PM 38.3440 -5.3900 16° North 421 484 36,000  Level FlightAware
10:13PM 38.4290 -5.3600 15° North 422 486 36,000  Level FlightAware
10:14PM 38.4890 -5.3370 17° North 422 486 36,000  Level FlightAware
10:15PM 38.5850 -5.3030 15° North 424 488 36,000  Level FlightAware
10:15PM 38.6690 -5.2720 16° North 425 489 36,000  Level FlightAware
10:16PM 38.7450 -5.2440 16° North 426 490 36,000 -120 Level FlightAware
10:17PM 38.8280 -5.2130 16° North 422 486 35,900 -480 Descending FlightAware
10:18PM 38.9010 -5.1730 23° Northeast 425 489 35,400 -900 Descending FlightAware
10:18PM 38.9690 -5.1190 32° Northeast 429 494 34,700 -1,320 Descending FlightAware
10:19PM 39.0330 -5.0480 41° Northeast 435 501 33,600 -2,100 Descending FlightAware
10:20PM 39.0890 -4.9620 50° Northeast 437 503 31,800 -2,400 Descending FlightAware
10:20PM 39.1370 -4.8650 57° Northeast 438 504 30,200 -2,160 Descending FlightAware
10:21PM 39.1790 -4.7770 58° Northeast 432 497 28,800 -2,220 Descending FlightAware
10:22PM 39.2290 -4.7000 50° Northeast 417 480 27,300 -2,280 Descending FlightAware
10:22PM 39.2910 -4.6200 45° Northeast 410 472 25,600 -3,000 Descending FlightAware
10:23PM 39.3460 -4.5490 45° Northeast 426 490 23,100 -2,760 Descending FlightAware
10:24PM 39.4070 -4.4700 45° Northeast 410 472 21,700 -1,500 Descending FlightAware
10:25PM 39.4580 -4.4020 46° Northeast 391 450 21,000 -1,020 Descending FlightAware
10:25PM 39.5100 -4.3350 45° Northeast 382 440 20,400 -1,020 Descending FlightAware
10:26PM 39.5670 -4.2600 45° Northeast 383 441 19,600 -1,320 Descending FlightAware
10:27PM 39.6170 -4.1950 45° Northeast 379 436 18,600 -1,800 Descending FlightAware
10:27PM 39.6700 -4.1240 46° Northeast 373 429 17,100 -1,980 Descending FlightAware
10:28PM 39.7200 -4.0590 45° Northeast 365 420 15,800 -1,680 Descending FlightAware
10:29PM 39.7650 -4.0000 45° Northeast 355 409 14,900 -1,380 Descending FlightAware
10:29PM 39.8160 -3.9320 46° Northeast 340 391 13,900 -1,380 Descending FlightAware
10:30PM 39.8610 -3.8730 45° Northeast 326 375 13,000 -1,440 Descending FlightAware
10:31PM 39.9020 -3.8180 46° Northeast 319 367 12,000 -1,500 Descending FlightAware
10:32PM 39.9470 -3.7580 46° Northeast 316 364 10,900 -1,680 Descending FlightAware
10:32PM 39.9880 -3.7040 45° Northeast 313 360 9,700 -1,740 Descending FlightAware
10:33PM 40.0180 -3.6640 46° Northeast 312 359 8,900 -1,680 Descending FlightAware
10:33PM 40.0440 -3.6280 47° Northeast 309 356 8,200 -1,560 Descending FlightAware
10:34PM 40.0740 -3.5880 46° Northeast 302 348 7,500 -1,440 Descending FlightAware
10:34PM 40.1030 -3.5500 45° Northeast 297 342 6,800 -1,440 Descending FlightAware
10:35PM 40.1260 -3.5190 46° Northeast 294 338 6,200 -1,560 Descending FlightAware
10:35PM 40.1550 -3.4800 46° Northeast 292 336 5,400 -1,320 Descending FlightAware
10:35PM 40.1790 -3.4480 46° Northeast 276 318 5,000 -660 Descending FlightAware
10:36PM 40.2050 -3.4130 46° Northeast 258 297 4,800 -240 Descending FlightAware
10:36PM 40.2300 -3.3790 46° Northeast 251 289 4,800  Level FlightAware
10:37PM 40.2490 -3.3540 45° Northeast 249 287 4,800  Level FlightAware
10:37PM 40.2630 -3.3420 33° Northeast 249 287 4,800  Level FlightAware
10:37PM 40.2800 -3.3430 357° North 244 281 4,800  Level FlightAware
10:38PM 40.2890 -3.3500 329° Northwest 238 274 4,800 -180 Level FlightAware
10:38PM 40.3160 -3.3770 323° Northwest 225 259 4,700  Descending FlightAware
10:39PM 40.3390 -3.4000 323° Northwest 213 245 4,800 -240 Climbing FlightAware
10:39PM 40.3590 -3.4200 323° Northwest 198 228 4,500 -900 Descending FlightAware
10:39PM 40.3800 -3.4410 323° Northwest 189 217 4,000 -1,020 Descending FlightAware
10:40PM 40.3970 -3.4580 323° Northwest 174 200 3,600 -1,020 Descending FlightAware
10:40PM 40.4150 -3.4770 321° Northwest 158 182 3,100 -900 Descending FlightAware
10:41PM 40.4320 -3.4940 323° Northwest 152 175 2,700 -780 Descending FlightAware
10:41PM 40.4450 -3.5080 321° Northwest 151 174 2,400 -780 Descending FlightAware
10:42PM 40.4620 -3.5250 323° Northwest 151 174 2,000 -840 Descending FlightAware
10:42PM 40.4710 -3.5340 323° Northwest 150 173 1,800 -840 Descending FlightAware